createdAt,value
2019-01-31T16:16:22.156Z,96846.63
2019-01-31T16:20:23.515Z,96837.03
2019-01-31T16:24:24.925Z,96831.37
2019-01-31T16:28:26.162Z,96839.78
2019-01-31T16:32:27.590Z,96843.81
2019-01-31T16:36:29.056Z,96835.72
2019-01-31T16:40:30.414Z,96821.99
2019-01-31T16:44:32.021Z,96826.17
2019-01-31T16:48:35.997Z,96819.44
2019-01-31T16:52:37.321Z,96826.02
2019-01-31T16:56:38.822Z,96809.42
2019-01-31T17:00:40.120Z,96789.44
2019-01-31T17:04:41.431Z,96780.04
2019-01-31T17:08:42.902Z,96788.61
2019-01-31T17:12:44.409Z,96790.79
2019-01-31T17:16:45.771Z,96790.44
2019-01-31T17:20:47.244Z,96794.60
2019-01-31T17:24:48.675Z,96782.03
2019-01-31T17:28:50.286Z,96777.17
2019-01-31T17:32:52.280Z,96784.25
2019-01-31T17:36:53.704Z,96786.16
2019-01-31T17:40:55.254Z,96794.89
2019-01-31T17:44:56.801Z,96785.65
2019-01-31T17:48:58.270Z,96791.83
2019-01-31T17:52:59.711Z,96788.66
2019-01-31T17:57:01.067Z,96794.59
2019-01-31T18:01:02.795Z,96788.48
2019-01-31T18:05:07.952Z,96777.86
2019-01-31T18:09:09.501Z,96786.17
2019-01-31T18:13:10.925Z,96786.11
2019-01-31T18:17:12.934Z,96783.78
2019-01-31T18:21:14.681Z,96778.28
2019-01-31T18:25:16.119Z,96769.02
2019-01-31T18:29:18.534Z,96757.83
2019-01-31T18:33:19.989Z,96740.69
2019-01-31T18:37:21.269Z,96750.55
2019-01-31T18:41:22.796Z,96748.25
2019-01-31T18:45:30.315Z,96738.00
2019-01-31T18:49:31.877Z,96716.83
2019-01-31T18:53:33.097Z,96699.36
2019-01-31T18:57:34.618Z,96693.14
2019-01-31T19:01:36.239Z,96683.50
2019-01-31T19:05:37.736Z,96687.08
2019-01-31T19:09:39.151Z,96682.55
2019-01-31T19:13:40.604Z,96680.38
2019-01-31T19:17:42.031Z,96669.71
2019-01-31T19:21:43.676Z,96664.68
2019-01-31T19:25:47.242Z,96651.36
2019-01-31T19:29:48.684Z,96648.94
2019-01-31T19:33:51.794Z,96640.88
2019-01-31T19:38:01.458Z,96632.47
2019-01-31T19:41:57.501Z,96627.66
2019-01-31T19:45:58.982Z,96626.13
2019-01-31T19:50:00.551Z,96621.62
2019-01-31T19:54:02.000Z,96615.35
2019-01-31T19:58:03.831Z,96612.69
2019-01-31T20:02:05.383Z,96608.30
2019-01-31T20:06:06.989Z,96598.27
2019-01-31T20:10:15.353Z,96596.60
2019-01-31T20:14:16.734Z,96597.47
2019-01-31T20:18:18.095Z,96595.17
2019-01-31T20:22:19.700Z,96600.81
2019-01-31T20:26:21.315Z,96596.00
2019-01-31T20:30:24.873Z,96589.97
2019-01-31T20:34:26.310Z,96597.16
2019-01-31T20:38:27.958Z,96603.80
2019-01-31T20:42:29.415Z,96595.30
2019-01-31T20:46:39.680Z,96601.77
2019-01-31T20:50:36.276Z,96603.91
2019-01-31T20:54:37.703Z,96595.13
2019-01-31T20:58:39.017Z,96602.48
2019-01-31T21:02:40.491Z,96602.25
2019-01-31T21:06:42.057Z,96601.00
2019-01-31T21:10:43.476Z,96601.88
2019-01-31T21:14:44.910Z,96596.13
2019-01-31T21:18:46.762Z,96589.84
2019-01-31T21:22:48.575Z,96572.03
2019-01-31T21:26:50.106Z,96558.69
2019-01-31T21:30:51.380Z,96547.28
2019-01-31T21:34:52.714Z,96536.55
2019-01-31T21:38:54.051Z,96531.33
2019-01-31T21:42:55.325Z,96529.29
2019-01-31T21:47:03.153Z,96527.73
2019-01-31T21:51:00.074Z,96517.12
2019-01-31T21:55:01.470Z,96516.87
2019-01-31T21:59:03.125Z,96514.38
2019-01-31T22:03:05.479Z,96512.70
2019-01-31T22:07:06.860Z,96500.98
2019-01-31T22:11:07.997Z,96500.22
2019-01-31T22:15:13.244Z,96502.40
2019-01-31T22:19:14.667Z,96507.51
2019-01-31T22:23:16.226Z,96496.80
2019-01-31T22:27:17.498Z,96488.55
2019-01-31T22:31:18.888Z,96478.28
2019-01-31T22:35:20.329Z,96467.16
2019-01-31T22:39:21.687Z,96450.88
2019-01-31T22:43:23.091Z,96449.91
2019-01-31T22:47:26.259Z,96470.30
2019-01-31T22:51:27.747Z,96465.23
2019-01-31T22:55:29.012Z,96452.84
2019-01-31T22:59:30.549Z,96454.21
2019-01-31T23:03:31.996Z,96436.56
2019-01-31T23:07:33.404Z,96421.13
2019-01-31T23:11:34.859Z,96410.34
2019-01-31T23:15:36.209Z,96393.23
2019-01-31T23:19:37.682Z,96381.59
2019-01-31T23:23:38.939Z,96382.95
2019-01-31T23:27:40.209Z,96393.97
2019-01-31T23:31:41.873Z,96376.59
2019-01-31T23:35:43.149Z,96373.27
2019-01-31T23:39:44.457Z,96373.95
2019-01-31T23:43:45.831Z,96374.92
2019-01-31T23:47:48.860Z,96371.94
2019-01-31T23:51:50.306Z,96375.05
2019-01-31T23:55:51.559Z,96380.04
2019-01-31T23:59:53.002Z,96372.27
